Time;durP1;ratioP1;P1;durP2;ratioP2;P2;SDS_P1;SDS_P2;PMS_P1;PMS_P2;Temp;Humidity;BMP_temperature;BMP_pressure;BME280_temperature;BME280_humidity;BME280_pressure;Samples;Min_cycle;Max_cycle;Signal;HPM_P1;HPM_P2
2022/03/12 04:28:52;;;;;;;5.47;2.33;;;;;;;;;;5857159;23;20111;-82
2022/03/12 05:25:31;;;;;;;5.83;2.33;;;;;;;;;;5591992;23;20038;-84
2022/03/12 05:30:31;;;;;;;4.77;2.00;;;;;;;;;;6116425;23;20016;-81
2022/03/12 06:22:34;;;;;;;5.97;2.63;;;;;;;;;;5009364;28;20050;-75
2022/03/12 06:24:59;;;;;;;6.83;2.70;;;;;;;;;;5012830;28;20030;-76
2022/03/12 06:27:24;;;;;;;8.45;2.85;;;;;;;;;;5014027;28;20029;-78
2022/03/12 06:29:50;;;;;;;7.25;2.88;;;;;;;;;;4995716;28;20030;-76
2022/03/12 06:32:15;;;;;;;7.07;3.00;;;;;;;;;;5014782;28;20026;-78
2022/03/12 06:34:43;;;;;;;6.07;2.90;;;;;;;;;;4985538;28;20065;-76
2022/03/12 06:37:09;;;;;;;8.13;2.88;;;;;;;;;;5002688;28;20505;-77
2022/03/12 06:39:34;;;;;;;6.55;2.75;;;;;;;;;;5013671;28;20058;-77
2022/03/12 06:42:02;;;;;;;5.57;2.08;;;;;;;;;;5007088;23;20046;-75
2022/03/12 06:44:32;;;;;;;6.63;2.30;;;;;;;;;;4994988;28;20088;-76
2022/03/12 06:46:58;;;;;;;6.85;2.70;;;;;;;;;;4991549;28;20029;-75
2022/03/12 06:49:23;;;;;;;5.60;2.20;;;;;;;;;;4993883;28;20036;-76
2022/03/12 06:51:48;;;;;;;6.45;2.55;;;;;;;;;;5002398;28;20034;-75
2022/03/12 06:54:13;;;;;;;5.45;2.35;;;;;;;;;;5018320;28;20026;-75
2022/03/12 06:56:39;;;;;;;5.88;2.45;;;;;;;;;;5022273;28;20488;-75
2022/03/12 06:59:04;;;;;;;5.88;2.47;;;;;;;;;;5025439;28;20026;-75
2022/03/12 07:01:30;;;;;;;6.75;2.85;;;;;;;;;;5033000;28;20021;-75
2022/03/12 07:03:55;;;;;;;9.25;2.95;;;;;;;;;;5014267;28;20037;-75
2022/03/12 07:06:21;;;;;;;6.13;2.22;;;;;;;;;;5002289;28;20091;-75
2022/03/12 07:08:46;;;;;;;4.65;2.35;;;;;;;;;;5024744;28;20026;-75
2022/03/12 07:11:12;;;;;;;9.18;2.83;;;;;;;;;;5011582;28;20034;-75
2022/03/12 07:13:37;;;;;;;7.05;2.47;;;;;;;;;;5027656;28;20034;-76
2022/03/12 07:16:03;;;;;;;6.47;2.58;;;;;;;;;;5013548;28;20496;-75
2022/03/12 07:18:28;;;;;;;7.18;2.45;;;;;;;;;;5025306;28;20029;-75
2022/03/12 07:20:55;;;;;;;5.57;2.47;;;;;;;;;;5024361;28;20032;-75
2022/03/12 07:23:21;;;;;;;5.75;2.50;;;;;;;;;;5032478;28;20025;-75
2022/03/12 07:25:46;;;;;;;9.57;3.67;;;;;;;;;;5024811;28;20026;-84
2022/03/12 07:28:17;;;;;;;7.13;3.17;;;;;;;;;;5038367;28;19998;-83
2022/03/12 07:30:42;;;;;;;11.05;2.95;;;;;;;;;;5023140;28;20020;-84
2022/03/12 07:33:09;;;;;;;9.25;3.50;;;;;;;;;;5051041;28;20021;-84
2022/03/12 07:35:34;;;;;;;5.65;2.42;;;;;;;;;;5023739;28;20383;-83
2022/03/12 07:37:59;;;;;;;6.93;3.00;;;;;;;;;;5029296;28;20009;-83
2022/03/12 07:40:25;;;;;;;9.07;3.10;;;;;;;;;;5046342;28;20021;-83
2022/03/12 07:42:50;;;;;;;7.15;3.00;;;;;;;;;;5029392;28;20017;-83
2022/03/12 07:45:16;;;;;;;6.32;2.65;;;;;;;;;;5036839;28;20025;-81
2022/03/12 07:47:41;;;;;;;8.15;3.30;;;;;;;;;;5047042;28;20040;-83
2022/03/12 07:50:08;;;;;;;5.88;2.45;;;;;;;;;;5029478;28;20026;-83
2022/03/12 07:52:33;;;;;;;4.55;2.08;;;;;;;;;;5046405;28;20081;-83
2022/03/12 07:55:18;;;;;;;;;;;;;;;;;;;;;
2022/03/12 07:57:45;;;;;;;5.57;2.75;;;;;;;;;;5054651;28;20053;-83
2022/03/12 08:00:15;;;;;;;8.10;2.30;;;;;;;;;;5021232;28;20024;-83
2022/03/12 08:02:44;;;;;;;6.30;2.40;;;;;;;;;;5055055;28;20017;-83
2022/03/12 08:05:13;;;;;;;6.90;2.78;;;;;;;;;;5033459;28;20029;-83
2022/03/12 08:07:39;;;;;;;8.13;2.88;;;;;;;;;;5035839;28;20018;-83
2022/03/12 08:10:04;;;;;;;7.45;2.38;;;;;;;;;;5043754;28;20026;-83
2022/03/12 08:12:31;;;;;;;7.18;2.85;;;;;;;;;;5038157;28;20028;-84
2022/03/12 08:15:08;;;;;;;8.52;2.88;;;;;;;;;;5039006;28;20081;-85
2022/03/12 08:17:36;;;;;;;7.93;3.00;;;;;;;;;;5041315;28;20033;-83
2022/03/12 08:20:05;;;;;;;6.75;2.42;;;;;;;;;;5029764;28;20049;-83
2022/03/12 08:22:54;;;;;;;;;;;;;;;;;;;;;
2022/03/12 08:25:19;;;;;;;6.80;3.03;;;;;;;;;;5056987;28;20056;-84
2022/03/12 08:27:51;;;;;;;5.93;2.65;;;;;;;;;;5038853;28;20034;-83
2022/03/12 08:30:25;;;;;;;8.05;2.97;;;;;;;;;;5020937;28;20014;-83
2022/03/12 08:33:08;;;;;;;8.80;2.88;;;;;;;;;;5055051;28;20016;-84
2022/03/12 08:35:34;;;;;;;7.88;2.80;;;;;;;;;;5058921;28;20032;-85
2022/03/12 08:38:05;;;;;;;5.78;2.97;;;;;;;;;;5041981;28;20033;-85
2022/03/12 08:43:11;;;;;;;5.00;2.70;;;;;;;;;;5086460;23;20062;-83
2022/03/12 08:53:39;;;;;;;7.72;2.83;;;;;;;;;;4974387;26;20085;-84
2022/03/12 08:56:12;;;;;;;9.13;3.55;;;;;;;;;;5038946;28;20053;-83
2022/03/12 09:03:41;;;;;;;;;;;;;;;;;;5054299;28;20094;-83
2022/03/12 09:06:12;;;;;;;8.38;3.47;;;;;;;;;;5034028;28;19889;-82
2022/03/12 09:08:38;;;;;;;6.82;2.70;;;;;;;;;;5035898;28;20022;-84
2022/03/12 09:11:06;;;;;;;7.53;3.05;;;;;;;;;;5045621;28;20017;-83
2022/03/12 09:34:20;;;;;;;9.30;3.25;;;;;;;;;;5174910;22;20141;-83
2022/03/12 09:36:45;;;;;;;9.15;2.58;;;;;;;;;;5037173;28;20040;-82
2022/03/12 09:39:11;;;;;;;6.03;2.90;;;;;;;;;;5042609;28;20105;-82
2022/03/12 09:41:43;;;;;;;6.50;2.45;;;;;;;;;;5035593;28;20017;-80
2022/03/12 09:44:09;;;;;;;6.72;2.92;;;;;;;;;;5019282;28;20056;-82
2022/03/12 09:46:38;;;;;;;7.53;3.13;;;;;;;;;;5020238;28;20030;-82
2022/03/12 09:49:04;;;;;;;6.07;2.45;;;;;;;;;;5019065;28;20061;-83
2022/03/12 09:51:32;;;;;;;5.47;2.72;;;;;;;;;;5019928;28;20018;-82
2022/03/12 09:54:03;;;;;;;5.38;2.65;;;;;;;;;;5018686;28;20030;-83
2022/03/12 09:56:29;;;;;;;6.22;2.72;;;;;;;;;;5017786;28;20002;-83
2022/03/12 09:59:02;;;;;;;6.72;2.72;;;;;;;;;;5019422;28;20028;-83
2022/03/12 10:01:27;;;;;;;6.13;3.00;;;;;;;;;;5036970;28;20029;-83
2022/03/12 10:03:55;;;;;;;6.57;3.00;;;;;;;;;;5036941;28;20026;-82
2022/03/12 10:06:21;;;;;;;8.88;3.40;;;;;;;;;;5036111;28;20006;-83
2022/03/12 10:08:59;;;;;;;6.88;3.38;;;;;;;;;;5612993;23;20017;-82
2022/03/12 10:11:25;;;;;;;7.97;3.38;;;;;;;;;;5070643;28;20005;-82
2022/03/12 10:13:55;;;;;;;6.63;2.80;;;;;;;;;;5054525;28;20028;-82
2022/03/12 10:16:24;;;;;;;5.82;2.70;;;;;;;;;;5054127;28;20040;-83
2022/03/12 10:18:50;;;;;;;5.28;2.10;;;;;;;;;;5040229;28;20033;-82
2022/03/12 10:21:17;;;;;;;5.93;2.67;;;;;;;;;;5073395;23;20042;-83
2022/03/12 10:23:43;;;;;;;8.05;2.38;;;;;;;;;;5034291;28;20060;-82
2022/03/12 10:26:08;;;;;;;5.72;2.80;;;;;;;;;;5030020;28;20017;-83
2022/03/12 10:28:36;;;;;;;5.45;2.65;;;;;;;;;;5050903;28;20005;-83
2022/03/12 10:31:05;;;;;;;7.13;2.83;;;;;;;;;;5043950;28;20050;-83
2022/03/12 10:33:30;;;;;;;11.02;3.05;;;;;;;;;;5034823;28;20365;-83
2022/03/12 10:36:06;;;;;;;8.45;2.90;;;;;;;;;;5035149;28;20022;-82
2022/03/12 10:38:37;;;;;;;6.50;3.10;;;;;;;;;;5035495;28;20021;-83
2022/03/12 10:41:05;;;;;;;7.40;3.28;;;;;;;;;;5033770;28;20064;-82
2022/03/12 10:43:33;;;;;;;7.20;3.57;;;;;;;;;;5047669;28;20025;-82
2022/03/12 10:46:00;;;;;;;4.45;2.63;;;;;;;;;;5048476;28;20238;-82
2022/03/12 10:48:28;;;;;;;5.40;2.78;;;;;;;;;;5051677;28;20053;-82
2022/03/12 10:50:55;;;;;;;6.85;3.40;;;;;;;;;;5031200;28;20026;-83
2022/03/12 10:53:22;;;;;;;8.38;2.97;;;;;;;;;;5028975;28;20002;-81
2022/03/12 10:55:49;;;;;;;7.10;3.08;;;;;;;;;;5047192;28;20084;-83
2022/03/12 10:58:27;;;;;;;7.15;2.83;;;;;;;;;;5060211;28;20024;-83
2022/03/12 11:01:00;;;;;;;6.03;2.78;;;;;;;;;;5023002;28;20027;-85
2022/03/12 11:03:30;;;;;;;5.90;2.53;;;;;;;;;;5009075;28;20026;-89
2022/03/12 11:05:56;;;;;;;4.60;2.60;;;;;;;;;;5005009;28;20037;-87
2022/03/12 11:08:26;;;;;;;5.45;2.90;;;;;;;;;;5018460;28;20021;-89
2022/03/12 11:10:59;;;;;;;8.00;3.10;;;;;;;;;;5008986;28;20394;-89
2022/03/12 11:13:34;;;;;;;5.07;2.78;;;;;;;;;;5011194;28;20013;-89
2022/03/12 11:16:20;;;;;;;5.82;2.95;;;;;;;;;;5016119;28;20022;-88
2022/03/12 11:18:48;;;;;;;7.57;2.75;;;;;;;;;;5006667;28;20046;-89
2022/03/12 11:21:14;;;;;;;6.28;3.00;;;;;;;;;;5004526;28;20081;-88
2022/03/12 11:23:42;;;;;;;5.68;2.97;;;;;;;;;;5011330;28;20032;-87
2022/03/12 11:26:07;;;;;;;6.72;2.38;;;;;;;;;;5030075;28;20033;-88
2022/03/12 11:28:35;;;;;;;5.38;2.47;;;;;;;;;;5004768;28;20508;-88
2022/03/12 11:31:01;;;;;;;7.63;2.83;;;;;;;;;;5025618;28;20488;-88
2022/03/12 11:33:27;;;;;;;9.15;3.30;;;;;;;;;;5019664;28;20058;-89
2022/03/12 11:36:09;;;;;;;5.13;2.90;;;;;;;;;;5019390;28;20028;-88
2022/03/12 11:38:36;;;;;;;5.95;2.60;;;;;;;;;;5021033;28;20049;-88
2022/03/12 11:41:03;;;;;;;5.43;2.60;;;;;;;;;;5028543;28;20021;-86
2022/03/12 11:43:31;;;;;;;7.10;2.93;;;;;;;;;;5040148;28;20057;-87
2022/03/12 11:45:59;;;;;;;6.40;2.70;;;;;;;;;;5017859;28;20029;-87
2022/03/12 11:48:25;;;;;;;8.10;2.92;;;;;;;;;;5010170;28;20022;-90
2022/03/12 11:50:50;;;;;;;4.95;2.60;;;;;;;;;;5005552;28;20377;-90
2022/03/12 11:53:17;;;;;;;5.25;2.67;;;;;;;;;;5025367;28;20100;-90
2022/03/12 11:55:42;;;;;;;5.43;2.78;;;;;;;;;;5008221;28;20037;-89
2022/03/12 11:58:08;;;;;;;7.75;3.08;;;;;;;;;;5036840;28;20021;-90
2022/03/12 12:00:34;;;;;;;5.43;2.90;;;;;;;;;;5025824;28;20029;-88
2022/03/12 12:02:59;;;;;;;5.07;2.92;;;;;;;;;;5010145;28;20022;-90
2022/03/12 12:05:28;;;;;;;10.07;3.28;;;;;;;;;;5017844;28;20087;-88
2022/03/12 12:07:55;;;;;;;7.70;2.60;;;;;;;;;;4999841;28;20032;-88
2022/03/12 12:10:31;;;;;;;7.57;3.17;;;;;;;;;;5021280;28;20041;-88
2022/03/12 12:12:57;;;;;;;4.80;2.80;;;;;;;;;;5024010;28;20025;-86
2022/03/12 12:15:29;;;;;;;5.50;2.72;;;;;;;;;;5017563;28;20021;-86
2022/03/12 12:17:54;;;;;;;8.02;3.28;;;;;;;;;;5004778;28;20048;-86
2022/03/12 12:20:21;;;;;;;5.43;2.80;;;;;;;;;;5033630;28;20461;-85
2022/03/12 12:22:46;;;;;;;4.45;2.85;;;;;;;;;;5026433;28;20119;-86
2022/03/12 12:25:12;;;;;;;6.15;3.13;;;;;;;;;;5026795;28;20033;-86
2022/03/12 12:27:43;;;;;;;5.38;2.88;;;;;;;;;;5030140;28;20209;-87
2022/03/12 12:30:10;;;;;;;7.40;3.53;;;;;;;;;;5009209;28;20088;-85
2022/03/12 12:32:43;;;;;;;8.35;4.30;;;;;;;;;;5027704;28;20176;-84
2022/03/12 12:35:12;;;;;;;8.07;3.00;;;;;;;;;;5018427;28;20105;-87
2022/03/12 12:37:57;;;;;;;6.25;2.75;;;;;;;;;;5031022;28;20017;-87
2022/03/12 12:40:24;;;;;;;7.20;3.22;;;;;;;;;;5013028;23;20029;-80
2022/03/12 12:42:51;;;;;;;7.03;2.92;;;;;;;;;;5041052;28;20060;-82
2022/03/12 12:45:18;;;;;;;6.65;2.78;;;;;;;;;;5049255;28;20545;-80
2022/03/12 12:47:43;;;;;;;6.78;3.30;;;;;;;;;;5053116;28;20029;-81
2022/03/12 12:50:17;;;;;;;4.60;2.75;;;;;;;;;;5047001;28;20035;-83
2022/03/12 12:53:02;;;;;;;6.07;3.13;;;;;;;;;;5051752;28;20315;-84
2022/03/12 12:55:31;;;;;;;7.10;2.78;;;;;;;;;;5043916;28;20020;-82
2022/03/12 12:57:56;;;;;;;4.45;2.55;;;;;;;;;;5041811;28;20063;-82
2022/03/12 13:00:21;;;;;;;6.32;3.03;;;;;;;;;;5036577;28;20034;-83
2022/03/12 13:02:49;;;;;;;5.68;3.05;;;;;;;;;;5025138;28;20444;-82
2022/03/12 13:05:14;;;;;;;9.23;3.40;;;;;;;;;;5039630;28;20025;-83
2022/03/12 13:08:01;;;;;;;5.68;2.85;;;;;;;;;;5046276;28;20031;-85
2022/03/12 13:10:28;;;;;;;10.93;3.25;;;;;;;;;;5044419;28;20056;-82
2022/03/12 13:13:09;;;;;;;6.75;3.08;;;;;;;;;;5048322;28;20028;-82
2022/03/12 13:15:39;;;;;;;7.53;2.72;;;;;;;;;;5021892;28;20053;-82
2022/03/12 13:18:30;;;;;;;4.75;2.67;;;;;;;;;;5049160;28;20160;-81
2022/03/12 13:20:56;;;;;;;5.43;3.03;;;;;;;;;;5047372;28;20080;-82
2022/03/12 13:23:32;;;;;;;4.88;3.03;;;;;;;;;;5036163;28;20056;-83
2022/03/12 13:25:58;;;;;;;6.00;3.05;;;;;;;;;;5042765;28;20121;-84
2022/03/12 13:28:36;;;;;;;4.68;2.95;;;;;;;;;;5058247;28;20021;-83
2022/03/12 13:31:11;;;;;;;6.35;3.15;;;;;;;;;;5042979;28;20025;-85
2022/03/12 13:33:36;;;;;;;5.68;3.15;;;;;;;;;;5043529;28;20017;-84
2022/03/12 13:36:01;;;;;;;9.80;3.38;;;;;;;;;;5021266;28;20561;-84
2022/03/12 13:38:26;;;;;;;6.03;3.60;;;;;;;;;;5022925;28;20027;-85
2022/03/12 13:40:52;;;;;;;9.63;3.40;;;;;;;;;;5029056;28;20025;-85
2022/03/12 13:43:17;;;;;;;6.78;3.63;;;;;;;;;;5033207;28;20409;-85
2022/03/12 13:45:42;;;;;;;9.77;3.78;;;;;;;;;;5033329;28;20013;-86
2022/03/12 13:48:08;;;;;;;6.13;3.33;;;;;;;;;;5043918;28;20021;-85
2022/03/12 13:50:34;;;;;;;5.10;3.17;;;;;;;;;;5042690;28;20056;-85
2022/03/12 13:53:00;;;;;;;8.43;3.88;;;;;;;;;;5024540;28;20025;-86
2022/03/12 13:55:27;;;;;;;8.52;3.83;;;;;;;;;;5038909;28;20017;-86
2022/03/12 13:57:59;;;;;;;6.55;3.75;;;;;;;;;;5030220;28;20025;-86
2022/03/12 14:00:26;;;;;;;6.55;3.92;;;;;;;;;;5045922;28;20021;-85
2022/03/12 14:02:52;;;;;;;7.63;3.53;;;;;;;;;;5040367;28;20018;-86
2022/03/12 14:05:28;;;;;;;8.10;3.35;;;;;;;;;;5040011;28;20022;-85
2022/03/12 14:07:54;;;;;;;7.32;3.70;;;;;;;;;;5042777;28;20036;-86
2022/03/12 14:10:22;;;;;;;6.78;3.75;;;;;;;;;;5041819;28;20078;-86
2022/03/12 14:12:56;;;;;;;5.07;3.58;;;;;;;;;;5046277;28;20033;-87
2022/03/12 14:15:25;;;;;;;10.95;5.25;;;;;;;;;;5039854;28;20020;-84
2022/03/12 14:17:52;;;;;;;7.60;3.63;;;;;;;;;;5053333;28;20104;-86
2022/03/12 14:20:18;;;;;;;7.07;3.45;;;;;;;;;;5030121;28;20025;-84
2022/03/12 14:22:45;;;;;;;7.05;3.97;;;;;;;;;;5028997;28;20108;-84
2022/03/12 14:25:10;;;;;;;8.10;4.15;;;;;;;;;;5043594;28;20025;-84
2022/03/12 14:27:36;;;;;;;8.02;3.88;;;;;;;;;;5049119;28;20028;-83
2022/03/12 14:30:02;;;;;;;9.75;4.30;;;;;;;;;;5045296;28;20033;-83
2022/03/12 14:32:28;;;;;;;9.75;4.57;;;;;;;;;;5035048;28;20032;-84
2022/03/12 14:34:55;;;;;;;7.50;3.90;;;;;;;;;;5051334;28;20024;-83
2022/03/12 14:37:20;;;;;;;8.48;4.07;;;;;;;;;;5042197;28;20010;-83
2022/03/12 14:39:49;;;;;;;9.40;3.70;;;;;;;;;;5027987;28;20507;-83
2022/03/12 14:42:14;;;;;;;;;;;;;;;;;;5039152;28;20025;-84
2022/03/12 14:44:41;;;;;;;9.15;4.10;;;;;;;;;;5053048;28;19924;-83
2022/03/12 14:47:07;;;;;;;11.25;4.43;;;;;;;;;;5051848;28;20036;-83
2022/03/12 14:49:36;;;;;;;9.57;3.95;;;;;;;;;;5046653;28;20051;-83
2022/03/12 14:52:03;;;;;;;7.32;4.35;;;;;;;;;;5037784;28;20604;-83
2022/03/12 14:54:31;;;;;;;8.93;4.30;;;;;;;;;;5035759;28;20033;-83
2022/03/12 14:56:59;;;;;;;9.57;4.13;;;;;;;;;;5022365;28;20021;-83
2022/03/12 14:59:27;;;;;;;6.70;4.13;;;;;;;;;;5043469;28;20017;-85
2022/03/12 15:02:11;;;;;;;10.43;4.55;;;;;;;;;;5033012;28;20480;-85
2022/03/12 15:04:44;;;;;;;7.05;3.97;;;;;;;;;;5042411;28;20029;-83
2022/03/12 15:07:12;;;;;;;9.07;4.18;;;;;;;;;;5051418;28;20053;-83
2022/03/12 15:09:56;;;;;;;9.70;5.43;;;;;;;;;;5048938;28;20021;-82
2022/03/12 15:12:27;;;;;;;8.10;4.05;;;;;;;;;;5024047;28;20033;-84
2022/03/12 15:14:54;;;;;;;8.70;4.30;;;;;;;;;;5041873;28;20026;-83
2022/03/12 15:17:30;;;;;;;11.93;4.30;;;;;;;;;;5018138;28;20100;-82
2022/03/12 15:20:00;;;;;;;10.15;4.07;;;;;;;;;;5042396;28;20024;-83
2022/03/12 15:22:26;;;;;;;8.95;4.65;;;;;;;;;;5039799;28;20013;-83
2022/03/12 15:24:55;;;;;;;11.15;4.70;;;;;;;;;;5032909;28;20107;-82
2022/03/12 15:27:25;;;;;;;7.57;4.10;;;;;;;;;;5025308;28;20494;-86
2022/03/12 15:29:58;;;;;;;10.50;4.10;;;;;;;;;;5028125;28;20391;-87
2022/03/12 15:32:23;;;;;;;7.28;4.50;;;;;;;;;;5045373;28;20017;-87
2022/03/12 15:34:52;;;;;;;7.25;4.10;;;;;;;;;;5036319;28;20079;-86
2022/03/12 15:37:29;;;;;;;14.93;4.68;;;;;;;;;;5026856;28;20059;-84
2022/03/12 15:39:58;;;;;;;8.25;3.97;;;;;;;;;;5024601;28;20025;-84
2022/03/12 15:42:23;;;;;;;8.50;4.22;;;;;;;;;;5054053;28;20021;-82
2022/03/12 15:44:48;;;;;;;9.80;4.20;;;;;;;;;;5020395;28;20041;-88
2022/03/12 15:47:14;;;;;;;13.43;4.18;;;;;;;;;;5035364;28;20440;-85
2022/03/12 15:49:39;;;;;;;7.60;3.80;;;;;;;;;;5036044;28;20092;-84
2022/03/12 15:52:04;;;;;;;8.85;3.78;;;;;;;;;;5038325;28;20037;-85
2022/03/12 15:54:30;;;;;;;8.88;4.32;;;;;;;;;;5045814;28;20323;-85
2022/03/12 15:56:55;;;;;;;7.43;4.05;;;;;;;;;;5025099;28;20094;-84
2022/03/12 15:59:22;;;;;;;7.05;4.25;;;;;;;;;;5024694;28;20017;-84
2022/03/12 16:01:47;;;;;;;6.93;3.65;;;;;;;;;;5047265;28;20111;-85
2022/03/12 16:04:14;;;;;;;7.30;3.80;;;;;;;;;;5034909;28;20501;-85
2022/03/12 16:06:43;;;;;;;11.63;3.85;;;;;;;;;;5041669;28;20086;-87
2022/03/12 16:09:08;;;;;;;19.17;6.32;;;;;;;;;;5042484;28;20026;-84
2022/03/12 16:11:37;;;;;;;7.88;3.95;;;;;;;;;;5024109;28;20121;-87
2022/03/12 16:14:02;;;;;;;8.60;3.88;;;;;;;;;;5030680;28;20088;-85
2022/03/12 16:16:31;;;;;;;8.52;3.80;;;;;;;;;;5039967;28;20025;-85
2022/03/12 16:18:57;;;;;;;10.60;4.32;;;;;;;;;;5044030;28;20330;-86
2022/03/12 16:21:22;;;;;;;8.48;4.25;;;;;;;;;;5051427;28;20027;-86
2022/03/12 16:23:47;;;;;;;10.15;4.22;;;;;;;;;;5035966;28;20480;-87
2022/03/12 16:26:13;;;;;;;8.18;4.60;;;;;;;;;;5030273;28;20029;-84
2022/03/12 16:28:38;;;;;;;10.73;4.63;;;;;;;;;;5020544;28;20113;-85
2022/03/12 16:31:03;;;;;;;10.70;5.43;;;;;;;;;;5040606;28;20033;-84
2022/03/12 16:33:29;;;;;;;10.95;5.00;;;;;;;;;;5044762;28;20033;-88
2022/03/12 16:35:55;;;;;;;8.82;4.97;;;;;;;;;;5042354;28;20073;-88
2022/03/12 16:38:22;;;;;;;10.43;4.88;;;;;;;;;;5049297;28;20022;-87
2022/03/12 16:40:47;;;;;;;13.18;5.00;;;;;;;;;;5042569;28;20043;-86
2022/03/12 16:43:13;;;;;;;13.45;5.72;;;;;;;;;;5052415;28;20476;-88
2022/03/12 16:45:42;;;;;;;10.02;4.53;;;;;;;;;;5020650;28;20025;-88
2022/03/12 16:48:07;;;;;;;11.30;5.53;;;;;;;;;;5018524;28;20036;-85
2022/03/12 16:50:33;;;;;;;11.85;6.00;;;;;;;;;;5041269;28;20377;-88
2022/03/12 16:52:59;;;;;;;9.10;5.47;;;;;;;;;;5044687;28;20104;-84
2022/03/12 16:55:25;;;;;;;10.00;4.57;;;;;;;;;;5049652;28;20042;-88
2022/03/12 16:57:53;;;;;;;10.23;5.60;;;;;;;;;;5067238;28;20013;-86
2022/03/12 17:00:19;;;;;;;14.57;5.93;;;;;;;;;;5044649;28;20037;-87
2022/03/12 17:02:45;;;;;;;10.32;5.47;;;;;;;;;;5043650;28;20040;-89
2022/03/12 17:05:10;;;;;;;27.27;6.78;;;;;;;;;;5052607;28;20119;-88
2022/03/12 17:07:36;;;;;;;18.48;6.28;;;;;;;;;;5065102;28;20043;-89
2022/03/12 17:10:02;;;;;;;15.15;5.78;;;;;;;;;;5042465;28;20049;-88
2022/03/12 17:12:29;;;;;;;10.82;5.13;;;;;;;;;;5039220;28;20031;-89
2022/03/12 17:14:54;;;;;;;12.15;5.70;;;;;;;;;;5037395;28;20035;-88
2022/03/12 17:17:23;;;;;;;17.83;5.88;;;;;;;;;;5028969;28;20033;-88
2022/03/12 17:19:48;;;;;;;14.18;5.07;;;;;;;;;;5045314;28;20025;-88
2022/03/12 17:22:13;;;;;;;12.25;5.53;;;;;;;;;;5040848;28;20018;-89
2022/03/12 17:24:40;;;;;;;11.80;5.30;;;;;;;;;;5027669;28;20028;-88
2022/03/12 17:27:06;;;;;;;11.77;6.32;;;;;;;;;;5039049;28;20256;-90
2022/03/12 17:29:32;;;;;;;17.63;5.70;;;;;;;;;;5021182;28;20033;-90
2022/03/12 17:31:58;;;;;;;14.07;6.75;;;;;;;;;;5050089;28;20028;-87
2022/03/12 17:34:23;;;;;;;15.85;7.38;;;;;;;;;;5043129;28;20531;-90
2022/03/12 17:36:49;;;;;;;12.07;6.22;;;;;;;;;;5034823;28;20024;-86
2022/03/12 17:39:17;;;;;;;12.02;5.85;;;;;;;;;;5033360;28;20096;-86
2022/03/12 17:41:43;;;;;;;11.90;6.40;;;;;;;;;;5022939;28;20082;-87
2022/03/12 17:44:09;;;;;;;13.93;6.70;;;;;;;;;;5040902;28;20288;-89
2022/03/12 17:46:35;;;;;;;11.23;5.20;;;;;;;;;;5044360;28;20029;-89
2022/03/12 17:49:01;;;;;;;11.75;5.63;;;;;;;;;;5042051;28;20036;-88
2022/03/12 17:51:26;;;;;;;10.38;5.85;;;;;;;;;;5040834;28;20026;-88
2022/03/12 17:53:53;;;;;;;16.15;5.68;;;;;;;;;;5048219;28;20104;-92
2022/03/12 17:56:22;;;;;;;10.95;5.50;;;;;;;;;;5034605;28;20136;-90
2022/03/12 17:58:47;;;;;;;12.60;5.93;;;;;;;;;;5014948;28;20021;-92
2022/03/12 18:01:12;;;;;;;13.02;5.50;;;;;;;;;;5052766;28;20025;-91
2022/03/12 18:03:38;;;;;;;10.25;5.15;;;;;;;;;;5053115;28;20105;-91
2022/03/12 18:06:04;;;;;;;13.75;6.43;;;;;;;;;;5031980;28;20049;-91
2022/03/12 18:08:30;;;;;;;14.57;5.65;;;;;;;;;;5023217;28;20492;-91
2022/03/12 18:10:57;;;;;;;10.27;5.28;;;;;;;;;;5034688;28;20017;-90
2022/03/12 18:13:23;;;;;;;10.48;4.70;;;;;;;;;;5023643;28;20017;-91
2022/03/12 18:15:51;;;;;;;11.75;5.60;;;;;;;;;;5023358;28;20030;-92
2022/03/12 18:18:17;;;;;;;8.75;5.13;;;;;;;;;;5043856;28;20021;-91
2022/03/12 18:20:43;;;;;;;10.98;5.13;;;;;;;;;;5045374;28;20044;-91
2022/03/12 18:23:09;;;;;;;9.57;5.00;;;;;;;;;;5048881;28;20045;-91
2022/03/12 18:25:36;;;;;;;11.25;5.10;;;;;;;;;;5030821;28;20120;-90
2022/03/12 18:28:01;;;;;;;11.70;4.95;;;;;;;;;;5026986;28;20029;-90
2022/03/12 18:30:27;;;;;;;12.98;5.53;;;;;;;;;;5041759;28;20040;-92
2022/03/12 18:32:53;;;;;;;8.63;4.72;;;;;;;;;;5023818;28;20108;-91
2022/03/12 18:35:19;;;;;;;10.40;4.82;;;;;;;;;;5036358;28;20025;-90
2022/03/12 18:37:46;;;;;;;10.75;5.45;;;;;;;;;;5020090;28;20075;-92
2022/03/12 18:40:13;;;;;;;8.95;5.30;;;;;;;;;;5017685;28;20056;-92
2022/03/12 18:42:39;;;;;;;10.52;5.05;;;;;;;;;;5006370;23;20054;-83
2022/03/12 18:45:06;;;;;;;11.77;4.82;;;;;;;;;;4973784;28;20105;-82
2022/03/12 18:47:31;;;;;;;12.82;5.82;;;;;;;;;;4982285;28;20031;-82
2022/03/12 18:49:57;;;;;;;12.65;5.47;;;;;;;;;;4992687;28;20165;-81
2022/03/12 18:52:23;;;;;;;11.20;4.88;;;;;;;;;;4988248;28;20068;-84
2022/03/12 18:54:53;;;;;;;9.20;5.00;;;;;;;;;;5009730;28;20030;-82
2022/03/12 18:57:19;;;;;;;10.90;5.50;;;;;;;;;;4996619;28;20049;-83
2022/03/12 18:59:44;;;;;;;10.40;5.10;;;;;;;;;;4987473;28;20025;-83
2022/03/12 19:02:10;;;;;;;11.45;5.85;;;;;;;;;;4989014;28;20229;-82
2022/03/12 19:04:35;;;;;;;11.13;5.13;;;;;;;;;;4981942;28;20030;-83
2022/03/12 19:07:00;;;;;;;10.70;5.60;;;;;;;;;;5012921;28;20072;-85
2022/03/12 19:09:28;;;;;;;12.27;5.18;;;;;;;;;;4985401;28;20042;-87
2022/03/12 19:11:55;;;;;;;9.27;5.20;;;;;;;;;;4993054;28;20036;-82
2022/03/12 19:14:21;;;;;;;13.00;6.30;;;;;;;;;;4989657;28;20112;-80
2022/03/12 19:16:46;;;;;;;13.70;6.68;;;;;;;;;;5014417;28;20497;-87
2022/03/12 19:19:12;;;;;;;18.92;7.93;;;;;;;;;;4987008;28;20024;-86
2022/03/12 19:21:37;;;;;;;13.02;7.75;;;;;;;;;;4988109;28;20394;-84
2022/03/12 19:24:03;;;;;;;18.30;6.97;;;;;;;;;;4994418;28;20060;-89
2022/03/12 19:26:28;;;;;;;14.48;7.57;;;;;;;;;;4991649;28;20049;-86
2022/03/12 19:28:53;;;;;;;16.02;7.82;;;;;;;;;;4995168;28;20022;-86
2022/03/12 19:31:19;;;;;;;15.38;7.03;;;;;;;;;;4991948;28;20032;-85
2022/03/12 19:33:49;;;;;;;13.05;6.85;;;;;;;;;;4992002;28;20026;-86
2022/03/12 19:36:15;;;;;;;13.65;6.72;;;;;;;;;;4992267;28;20022;-85
2022/03/12 19:38:40;;;;;;;14.50;6.90;;;;;;;;;;4989854;28;20029;-86
2022/03/12 19:41:07;;;;;;;16.60;6.47;;;;;;;;;;4988192;28;20532;-87
2022/03/12 19:43:32;;;;;;;11.55;5.30;;;;;;;;;;4994984;28;20032;-86
2022/03/12 19:45:58;;;;;;;11.02;5.60;;;;;;;;;;4995900;28;20101;-86
2022/03/12 19:48:23;;;;;;;15.68;5.68;;;;;;;;;;4989235;28;20080;-84
2022/03/12 19:50:48;;;;;;;11.10;5.28;;;;;;;;;;4988163;28;20022;-86
2022/03/12 19:53:14;;;;;;;17.23;5.80;;;;;;;;;;5013045;28;20092;-86
2022/03/12 19:55:39;;;;;;;14.57;5.90;;;;;;;;;;5010102;28;20076;-86
2022/03/12 19:58:17;;;;;;;12.10;5.50;;;;;;;;;;4993931;28;20465;-85
2022/03/12 20:00:43;;;;;;;12.02;6.18;;;;;;;;;;5004977;28;20022;-85
2022/03/12 20:03:10;;;;;;;15.65;6.15;;;;;;;;;;4991655;28;20164;-82
2022/03/12 20:05:36;;;;;;;13.07;5.90;;;;;;;;;;5000689;28;20017;-83
2022/03/12 20:08:05;;;;;;;11.57;5.90;;;;;;;;;;4992487;28;20034;-82
2022/03/12 20:10:31;;;;;;;11.48;5.78;;;;;;;;;;5012412;28;20025;-82
2022/03/12 20:12:57;;;;;;;10.25;5.60;;;;;;;;;;5016379;28;20080;-82
2022/03/12 20:15:23;;;;;;;10.40;5.20;;;;;;;;;;4996272;28;20022;-83
2022/03/12 20:17:49;;;;;;;14.55;5.80;;;;;;;;;;4990823;28;20122;-83
2022/03/12 20:20:15;;;;;;;11.73;5.75;;;;;;;;;;5007217;28;20478;-82
2022/03/12 20:22:40;;;;;;;12.23;5.72;;;;;;;;;;5009677;28;20445;-80
2022/03/12 20:25:08;;;;;;;11.93;5.65;;;;;;;;;;5007864;28;20029;-81
2022/03/12 20:27:33;;;;;;;12.68;6.22;;;;;;;;;;5012389;28;20026;-81
2022/03/12 20:29:59;;;;;;;14.07;6.20;;;;;;;;;;5009832;28;20026;-80
2022/03/12 20:32:25;;;;;;;16.17;6.40;;;;;;;;;;5013870;28;20026;-83
2022/03/12 20:34:51;;;;;;;14.25;6.28;;;;;;;;;;4988608;28;20079;-82
2022/03/12 20:37:17;;;;;;;11.38;6.30;;;;;;;;;;4992498;28;20025;-80
2022/03/12 20:39:44;;;;;;;16.95;6.05;;;;;;;;;;5005046;28;20022;-81
2022/03/12 20:42:09;;;;;;;11.77;6.47;;;;;;;;;;4967160;28;1093136;-80
2022/03/12 20:44:34;;;;;;;15.50;6.90;;;;;;;;;;5012524;28;20026;-81
2022/03/12 20:47:00;;;;;;;14.95;6.82;;;;;;;;;;5012237;28;20092;-80
2022/03/12 20:49:25;;;;;;;13.00;6.57;;;;;;;;;;5012828;28;20026;-81
2022/03/12 20:51:50;;;;;;;13.38;6.43;;;;;;;;;;5004792;28;20022;-81
2022/03/12 20:54:15;;;;;;;13.35;6.80;;;;;;;;;;4983087;28;20033;-80
2022/03/12 20:56:41;;;;;;;11.18;5.60;;;;;;;;;;5009408;28;20032;-83
2022/03/12 20:59:06;;;;;;;10.38;5.03;;;;;;;;;;5002988;28;20022;-83
2022/03/12 21:01:32;;;;;;;14.77;7.75;;;;;;;;;;5004055;28;20017;-83
2022/03/12 21:03:57;;;;;;;17.00;6.18;;;;;;;;;;4999683;28;20057;-82
2022/03/12 21:06:22;;;;;;;11.63;5.45;;;;;;;;;;5017449;28;20040;-79
2022/03/12 21:08:48;;;;;;;9.40;4.68;;;;;;;;;;4989003;28;20021;-79
2022/03/12 21:11:15;;;;;;;11.60;6.05;;;;;;;;;;5006119;28;20038;-80
2022/03/12 21:13:41;;;;;;;12.48;6.00;;;;;;;;;;5018310;28;20053;-81
2022/03/12 21:16:06;;;;;;;11.75;5.45;;;;;;;;;;5005124;28;20026;-82
2022/03/12 21:18:31;;;;;;;12.77;5.60;;;;;;;;;;4994282;28;20036;-80
2022/03/12 21:20:57;;;;;;;12.90;5.35;;;;;;;;;;5019504;28;20466;-80
2022/03/12 21:23:24;;;;;;;10.00;4.90;;;;;;;;;;4990875;28;20022;-81
2022/03/12 21:25:49;;;;;;;11.07;5.05;;;;;;;;;;5011783;28;20026;-81
2022/03/12 21:28:15;;;;;;;10.32;4.88;;;;;;;;;;5020535;28;20033;-80
2022/03/12 21:30:40;;;;;;;11.20;5.13;;;;;;;;;;5006470;28;20026;-79
2022/03/12 21:33:06;;;;;;;10.55;4.88;;;;;;;;;;4994899;28;20033;-80